createdAt,value
2019-05-03T11:28:59.115Z,14.60
2019-05-03T11:31:44.545Z,14.50
2019-05-03T11:34:15.208Z,13.90
2019-05-03T11:36:45.628Z,11.40
2019-05-03T11:39:14.567Z,10.20
2019-05-03T11:41:45.129Z,9.20
2019-05-03T11:44:32.346Z,9.30
2019-05-03T11:47:01.130Z,9.60
2019-05-03T11:49:30.182Z,9.00
2019-05-03T11:51:59.029Z,8.50
2019-05-03T11:54:27.838Z,9.00
2019-05-03T11:56:59.737Z,9.80
2019-05-03T11:59:28.717Z,9.70
2019-05-03T12:02:15.693Z,9.30
2019-05-03T12:04:45.855Z,9.40
2019-05-03T12:07:18.504Z,9.30
2019-05-03T12:09:46.941Z,9.10
2019-05-03T12:12:17.316Z,8.90
2019-05-03T12:14:46.233Z,9.90
2019-05-03T12:17:23.844Z,10.80
2019-05-03T12:19:49.513Z,12.60
2019-05-03T12:22:18.992Z,13.90
2019-05-03T12:24:49.022Z,13.60
2019-05-03T12:27:18.361Z,11.80
2019-05-03T12:29:52.433Z,11.80
2019-05-03T12:32:21.094Z,11.10
2019-05-03T12:34:49.931Z,11.10
2019-05-03T12:37:18.835Z,11.40
2019-05-03T12:39:47.789Z,11.10
2019-05-03T12:42:18.825Z,12.30
2019-05-03T12:44:47.146Z,13.80
2019-05-03T12:47:16.013Z,14.70
2019-05-03T12:49:45.219Z,15.50
2019-05-03T12:52:16.510Z,14.40
2019-05-03T12:54:44.647Z,13.80
2019-05-03T12:57:15.377Z,13.20
2019-05-03T12:59:48.252Z,11.50
2019-05-03T13:02:29.663Z,11.80
2019-05-03T13:04:58.628Z,10.90
2019-05-03T13:07:45.543Z,11.10
2019-05-03T13:10:21.617Z,11.40
2019-05-03T13:12:52.800Z,11.40
2019-05-03T13:15:18.066Z,11.10
2019-05-03T13:17:46.979Z,12.50
2019-05-03T13:20:16.606Z,13.80
2019-05-03T13:22:45.908Z,15.00
2019-05-03T13:25:16.717Z,12.80
2019-05-03T13:27:46.647Z,11.30
2019-05-03T13:30:16.299Z,10.00
2019-05-03T13:32:46.688Z,9.10
2019-05-03T13:35:15.710Z,9.40
2019-05-03T13:37:46.879Z,10.20
2019-05-03T13:40:15.721Z,10.30
2019-05-03T13:42:56.087Z,11.00
2019-05-03T13:45:14.988Z,11.70
2019-05-03T13:47:44.714Z,11.60
2019-05-03T13:50:15.172Z,10.90
2019-05-03T13:52:45.282Z,10.10
2019-05-03T13:55:14.654Z,10.00
2019-05-03T13:57:45.836Z,10.30
2019-05-03T14:00:15.360Z,11.40
2019-05-03T14:02:44.926Z,11.70
2019-05-03T14:05:15.522Z,10.50
2019-05-03T14:07:44.766Z,9.20
2019-05-03T14:10:14.275Z,8.60
2019-05-03T14:12:45.380Z,8.40
2019-05-03T14:15:14.902Z,8.50
2019-05-03T14:17:43.958Z,8.50
2019-05-03T14:20:31.149Z,8.10
2019-05-03T14:23:00.060Z,9.60
2019-05-03T14:25:28.931Z,9.70
2019-05-03T14:27:59.636Z,11.40
2019-05-03T14:30:28.272Z,12.30
2019-05-03T14:32:57.191Z,12.20
2019-05-03T14:35:26.021Z,11.90
2019-05-03T14:37:55.227Z,11.90
2019-05-03T14:40:25.105Z,12.10
2019-05-03T14:42:55.441Z,12.70
2019-05-03T14:45:25.561Z,12.80
2019-05-03T14:47:57.423Z,12.60
2019-05-03T14:50:25.511Z,12.40
2019-05-03T14:52:56.956Z,12.70
2019-05-03T14:55:45.271Z,13.20
2019-05-03T14:58:35.144Z,12.60
2019-05-03T15:01:09.260Z,11.90
2019-05-03T15:03:38.140Z,11.80
2019-05-03T15:06:06.969Z,12.30
2019-05-03T15:08:37.395Z,12.90
2019-05-03T15:11:06.275Z,13.40
2019-05-03T15:13:35.110Z,13.50
2019-05-03T15:16:05.228Z,12.80
2019-05-03T15:18:34.817Z,12.80
2019-05-03T15:21:05.459Z,12.80
2019-05-03T15:23:34.723Z,13.20
2019-05-03T15:26:05.159Z,12.50
2019-05-03T15:28:35.555Z,12.00
2019-05-03T15:31:05.025Z,11.50
2019-05-03T15:33:35.360Z,10.80
2019-05-03T15:36:05.322Z,10.10
2019-05-03T15:38:34.607Z,9.50
2019-05-03T15:41:05.387Z,9.00
2019-05-03T15:43:35.779Z,8.50
2019-05-03T15:46:06.222Z,8.40
2019-05-03T15:48:39.609Z,8.30
2019-05-03T15:51:08.562Z,8.10
2019-05-03T15:53:37.437Z,8.30
2019-05-03T15:56:06.324Z,8.30
2019-05-03T15:58:35.241Z,8.10
2019-05-03T16:01:04.741Z,7.90
2019-05-03T16:03:35.599Z,7.70
2019-05-03T16:06:04.918Z,7.60
2019-05-03T16:08:34.048Z,7.40
2019-05-03T16:11:05.268Z,7.40
2019-05-03T16:13:35.562Z,7.80
2019-05-03T16:16:04.641Z,8.20
2019-05-03T16:18:35.307Z,8.90
2019-05-03T16:21:05.032Z,9.40
2019-05-03T16:23:33.892Z,9.70
2019-05-03T16:26:02.721Z,9.60
2019-05-03T16:28:40.592Z,9.00
2019-05-03T16:31:17.171Z,8.50
2019-05-03T16:33:46.017Z,8.00
2019-05-03T16:36:14.933Z,7.60
2019-05-03T16:38:44.949Z,7.50
2019-05-03T16:41:17.463Z,7.40
2019-05-03T16:43:45.498Z,7.20
2019-05-03T16:46:15.885Z,7.00
2019-05-03T16:48:44.980Z,6.90
2019-05-03T16:51:15.019Z,6.90
2019-05-03T16:53:44.831Z,6.90
2019-05-03T16:56:16.576Z,6.80
2019-05-03T16:58:44.666Z,6.80
2019-05-03T17:01:17.742Z,6.80
2019-05-03T17:03:45.872Z,6.90
2019-05-03T17:06:22.577Z,7.00
2019-05-03T17:09:09.325Z,7.00
2019-05-03T17:11:38.193Z,6.90
2019-05-03T17:14:07.768Z,7.00
2019-05-03T17:16:36.665Z,6.90
2019-05-03T17:19:05.883Z,6.70
2019-05-03T17:21:35.017Z,6.70
2019-05-03T17:24:09.586Z,6.60
2019-05-03T17:26:38.345Z,6.40
2019-05-03T17:29:07.170Z,6.40
2019-05-03T17:31:36.064Z,6.40
2019-05-03T17:34:05.523Z,6.40
2019-05-03T17:36:34.557Z,6.40
2019-05-03T17:39:04.936Z,6.50
2019-05-03T17:41:35.515Z,6.50
2019-05-03T17:44:06.037Z,6.40
2019-05-03T17:46:37.212Z,6.30
2019-05-03T17:49:06.002Z,6.30
2019-05-03T17:51:39.319Z,6.20
2019-05-03T17:54:12.381Z,6.10
2019-05-03T17:56:59.394Z,6.10
2019-05-03T17:59:34.945Z,6.00
2019-05-03T18:02:21.505Z,6.00
2019-05-03T18:05:08.396Z,6.00
2019-05-03T18:07:55.390Z,5.90
2019-05-03T18:10:28.715Z,5.80
2019-05-03T18:15:27.800Z,5.60
2019-05-03T18:17:56.770Z,5.50
2019-05-03T18:20:29.665Z,5.40
2019-05-03T18:22:58.601Z,5.40
2019-05-03T18:25:27.646Z,5.40
2019-05-03T18:27:56.504Z,5.40
2019-05-03T18:30:25.397Z,5.30
2019-05-03T18:32:54.499Z,5.20
2019-05-03T18:35:23.399Z,5.10
2019-05-03T18:37:58.557Z,5.00
2019-05-03T18:40:28.079Z,5.10
2019-05-03T18:43:04.583Z,5.00
2019-05-03T18:45:50.187Z,4.90
2019-05-03T18:48:19.114Z,4.80
2019-05-03T18:50:48.567Z,4.70
2019-05-03T18:53:17.478Z,4.70
2019-05-03T18:55:46.394Z,4.60
2019-05-03T18:58:15.250Z,4.70
2019-05-03T19:00:44.443Z,4.70
2019-05-03T19:03:16.427Z,4.70
2019-05-03T19:05:55.977Z,4.70
2019-05-03T19:08:26.456Z,4.60
2019-05-03T19:11:04.449Z,4.50
2019-05-03T19:13:34.628Z,4.60
2019-05-03T19:16:05.068Z,4.60
2019-05-03T19:18:35.411Z,4.50
2019-05-03T19:21:04.669Z,4.50
2019-05-03T19:23:35.349Z,4.50
2019-05-03T19:26:05.573Z,4.60
2019-05-03T19:28:35.401Z,4.50
2019-05-03T19:31:07.684Z,4.40
2019-05-03T19:33:37.315Z,4.30
2019-05-03T19:36:06.456Z,4.40
2019-05-03T19:38:35.291Z,4.40
2019-05-03T19:41:04.247Z,4.40
2019-05-03T19:43:35.376Z,4.20
2019-05-03T19:46:07.372Z,4.30
2019-05-03T19:48:40.501Z,4.20
2019-05-03T19:51:08.952Z,4.10
2019-05-03T19:53:51.718Z,3.90
2019-05-03T19:56:19.833Z,3.90
2019-05-03T19:58:49.073Z,4.00
2019-05-03T20:01:22.688Z,3.90
2019-05-03T20:03:59.102Z,3.90
2019-05-03T20:06:34.449Z,3.90
2019-05-03T20:09:15.074Z,4.00
2019-05-03T20:11:45.968Z,3.90
2019-05-03T20:14:14.941Z,3.80
2019-05-03T20:16:44.962Z,3.80
2019-05-03T20:19:20.907Z,3.70
2019-05-03T20:21:46.089Z,3.70
2019-05-03T20:24:15.248Z,3.80
2019-05-03T20:26:48.069Z,3.70
2019-05-03T20:29:20.021Z,3.80
2019-05-03T20:31:52.611Z,3.80
2019-05-03T20:34:22.226Z,3.80
2019-05-03T20:36:54.724Z,3.70
2019-05-03T20:39:25.261Z,3.70
2019-05-03T20:41:55.054Z,3.70
2019-05-03T20:44:35.404Z,3.60
2019-05-03T20:47:05.999Z,3.60
2019-05-03T20:49:36.305Z,3.50
2019-05-03T20:52:05.144Z,3.50
2019-05-03T20:54:34.989Z,3.50
2019-05-03T20:57:06.080Z,3.40
2019-05-03T20:59:42.898Z,3.40
2019-05-03T21:02:05.989Z,3.40
2019-05-03T21:04:35.439Z,3.30
2019-05-03T21:07:04.773Z,3.30
2019-05-03T21:09:34.550Z,3.30
2019-05-03T21:12:04.485Z,3.20
2019-05-03T21:14:35.023Z,3.20
2019-05-03T21:17:08.383Z,3.20
2019-05-03T21:19:41.453Z,3.20
2019-05-03T21:22:11.869Z,3.20
2019-05-03T21:24:51.179Z,3.10
2019-05-03T21:27:19.931Z,3.10
2019-05-03T21:29:50.275Z,3.00
2019-05-03T21:32:19.261Z,2.90
2019-05-03T21:34:48.509Z,2.90
2019-05-03T21:37:17.333Z,2.90
2019-05-03T21:39:46.193Z,2.80
2019-05-03T21:42:15.246Z,2.80
2019-05-03T21:44:44.831Z,2.80
2019-05-03T21:47:15.434Z,2.70
2019-05-03T21:49:45.839Z,2.70
2019-05-03T21:52:14.754Z,2.70
2019-05-03T21:54:45.057Z,2.70
2019-05-03T21:57:14.298Z,2.70
2019-05-03T21:59:44.804Z,2.60
2019-05-03T22:02:15.431Z,2.60
2019-05-03T22:04:44.441Z,2.50
2019-05-03T22:07:13.484Z,2.50
2019-05-03T22:09:42.345Z,2.40
2019-05-03T22:12:11.321Z,2.40
2019-05-03T22:14:41.738Z,2.40
2019-05-03T22:17:27.311Z,2.30
2019-05-03T22:19:57.777Z,2.30
2019-05-03T22:22:30.670Z,2.30
2019-05-03T22:25:01.073Z,2.30
2019-05-03T22:27:34.935Z,2.20
2019-05-03T22:30:05.685Z,2.20
2019-05-03T22:32:35.469Z,2.20
2019-05-03T22:35:07.180Z,2.20
2019-05-03T22:37:36.123Z,2.20
2019-05-03T22:40:06.366Z,2.20
2019-05-03T22:42:35.195Z,2.30
2019-05-03T22:45:05.019Z,2.20
2019-05-03T22:47:35.639Z,2.10
2019-05-03T22:50:05.567Z,2.10
2019-05-03T22:52:34.997Z,2.00
2019-05-03T22:55:06.412Z,2.00
2019-05-03T22:57:36.283Z,2.00
2019-05-03T23:00:08.516Z,1.90
2019-05-03T23:02:37.487Z,1.90
2019-05-03T23:05:06.605Z,1.80
2019-05-03T23:07:37.436Z,1.80
2019-05-03T23:10:07.469Z,1.80
2019-05-03T23:12:36.339Z,1.80
2019-05-03T23:15:08.449Z,1.80
2019-05-03T23:17:37.332Z,1.80
2019-05-03T23:20:15.063Z,1.80
2019-05-03T23:22:45.556Z,1.80
2019-05-03T23:25:14.469Z,1.80
2019-05-03T23:27:44.480Z,1.70
2019-05-03T23:30:16.471Z,1.70
2019-05-03T23:32:45.378Z,1.70
2019-05-03T23:35:14.167Z,1.70
2019-05-03T23:37:44.895Z,1.70
2019-05-03T23:40:14.795Z,1.80
2019-05-03T23:42:46.491Z,1.70
2019-05-03T23:45:15.340Z,1.70
2019-05-03T23:47:48.940Z,1.80
2019-05-03T23:50:19.576Z,1.80
2019-05-03T23:52:48.331Z,1.80
2019-05-03T23:55:25.260Z,1.70
2019-05-03T23:57:55.426Z,1.70
